Airfield :
LOGIN :

Register | Disclaimer

   EN    FR    IT 

 










Legend :    VFR   Marginal VFR   IFR   Intensive IFR   Very Intensive IFR
Visi :
Ceiling :
>= 8 km
>= 3000ft
5 to 8 km
1000 to 3000 ft
1500m to 5 km
500 to 1000 ft
800 to 1500m
200 to 500 ft
< 800m
< 200 ft
Symbols :   Thunderstorms  Fog  Heavy snow  Heavy precipitations  Wind > 20 kt
SIGMETs :     Misc.  Thunderstorms  Icing  Turbulence  Mountain Waves  Volcanic Ashes






- Airport Elevation : 3 ft
- IATA code : EME


EDWE - Emden

CURRENT METAR :
  • 272320Z AUTO 23004KT 9999 // NCD 12/10 Q1019

EXPIRED METARs :
  • 272250Z AUTO 23006KT 9999 // NCD 12/10 Q1019
  • 272220Z AUTO 25006KT 9999 // NCD 12/10 Q1018
  • 272150Z AUTO 25007KT 9999 // NCD 12/10 Q1018
  • 272120Z AUTO 24005KT 9999 // NCD 13/11 Q1017
  • 272050Z AUTO 25006KT 9999 // FEW040/// 13/11 Q1017
  • 272020Z AUTO 24008KT 9999 // FEW052/// 14/12 Q1016

Expired Forecast.



MET'MAP, your aeronautical weather chart ! - Copyright ORBIFLY December 2007 - Disclaimer

ORBIFLY MET'MAP TEAM :

Programming & Development : Alexandra Zaïnal
Concept & original design : Baudouin d'Aumeries
Assistance for programming : Marc-Olivier Méhu
Technical & hardware support : Manuel Goepfert

Contact : metmap@orbifly.com




SOURCES & CREDITS :

   NOAA